Time;durP1;ratioP1;P1;durP2;ratioP2;P2;SDS_P1;SDS_P2;PMS_P1;PMS_P2;Temp;Humidity;BMP_temperature;BMP_pressure;BME280_temperature;BME280_humidity;BME280_pressure;Samples;Min_cycle;Max_cycle;Signal;HPM_P1;HPM_P2
2023/08/09 00:11:08;;;;;;;3.35;1.45;;;;;;;14.33;64.73;99917.47;31090860;27;97661;-67
2023/08/09 00:26:08;;;;;;;4.47;1.45;;;;;;;14.48;64.57;99934.19;31093083;28;96749;-67
2023/08/09 00:41:09;;;;;;;3.15;1.92;;;;;;;14.29;65.31;99933.09;31091904;28;98079;-67
2023/08/09 00:56:09;;;;;;;3.55;1.55;;;;;;;14.12;66.46;99938.00;31089011;28;96839;-67
2023/08/09 01:11:17;;;;;;;4.03;1.92;;;;;;;14.12;66.56;99931.78;31088994;28;96836;-67
2023/08/09 01:26:18;;;;;;;6.70;1.63;;;;;;;14.02;67.39;99942.88;31089580;28;97576;-67
2023/08/09 01:41:19;;;;;;;2.17;1.25;;;;;;;13.72;67.72;99943.13;31086755;28;97047;-67
2023/08/09 01:56:19;;;;;;;5.00;1.93;;;;;;;13.60;68.60;99924.13;31087806;28;97905;-66
2023/08/09 02:11:20;;;;;;;5.70;1.65;;;;;;;13.65;69.36;99926.22;31085434;28;102891;-67
2023/08/09 02:26:20;;;;;;;5.78;1.65;;;;;;;13.53;69.31;99915.22;31085599;28;99130;-66
2023/08/09 02:41:20;;;;;;;3.10;2.00;;;;;;;13.28;69.79;99930.88;31083495;28;112792;-67
2023/08/09 02:56:20;;;;;;;4.15;2.00;;;;;;;12.92;70.50;99938.00;31103066;28;97463;-66
2023/08/09 03:11:23;;;;;;;4.07;2.10;;;;;;;12.64;71.03;99936.09;31099812;28;109935;-67
2023/08/09 03:26:23;;;;;;;4.17;2.20;;;;;;;12.32;72.15;99953.41;31100447;28;97178;-66
2023/08/09 03:41:25;;;;;;;4.03;2.13;;;;;;;11.96;73.15;99962.19;31097969;28;97998;-67
2023/08/09 03:56:26;;;;;;;4.10;2.17;;;;;;;11.90;73.33;99949.56;31097187;28;97047;-67
2023/08/09 04:11:26;;;;;;;3.83;2.10;;;;;;;12.10;73.58;99907.94;31095638;28;97066;-67
2023/08/09 04:26:27;;;;;;;6.80;3.10;;;;;;;12.81;74.05;99901.09;31091104;28;96955;-66
2023/08/09 04:41:27;;;;;;;4.15;2.25;;;;;;;13.27;73.19;99915.84;31089290;28;99627;-68
2023/08/09 04:56:28;;;;;;;6.10;2.35;;;;;;;13.73;72.66;99903.81;31087738;28;105043;-67
2023/08/09 05:11:28;;;;;;;4.13;1.70;;;;;;;14.30;72.29;99905.28;31061427;28;97782;-65
2023/08/09 05:26:28;;;;;;;3.67;2.20;;;;;;;14.60;71.37;99918.34;31068573;28;111818;-65
2023/08/09 05:41:29;;;;;;;3.80;1.60;;;;;;;15.19;71.06;99919.44;31063524;28;97526;-65
2023/08/09 05:56:29;;;;;;;3.83;1.63;;;;;;;16.20;69.58;99925.44;31067408;28;97486;-69
2023/08/09 06:11:30;;;;;;;3.30;1.40;;;;;;;16.57;68.47;99933.69;31060887;28;98681;-66
2023/08/09 06:26:30;;;;;;;5.15;1.52;;;;;;;16.98;66.42;99965.78;31093889;28;97331;-66
2023/08/09 06:41:31;;;;;;;3.28;1.67;;;;;;;16.66;66.38;99963.03;31101489;28;96778;-70
2023/08/09 06:56:31;;;;;;;12.82;2.15;;;;;;;16.42;65.75;99978.88;31143655;28;97568;-68
2023/08/09 07:11:32;;;;;;;3.38;1.80;;;;;;;15.99;66.26;99996.41;31131359;28;97212;-69
2023/08/09 07:26:33;;;;;;;3.40;1.98;;;;;;;15.89;67.06;100004.88;31106777;28;97733;-70
2023/08/09 07:41:33;;;;;;;5.32;2.28;;;;;;;15.71;68.54;100010.88;31104319;28;97025;-70
2023/08/09 07:56:34;;;;;;;4.00;2.70;;;;;;;16.11;69.07;100006.50;31098606;28;96786;-69
2023/08/09 08:11:35;;;;;;;4.05;2.03;;;;;;;16.22;68.13;100014.75;31103194;28;97109;-71
2023/08/09 08:26:36;;;;;;;4.05;2.38;;;;;;;15.85;68.84;100018.94;31097823;28;97225;-69
2023/08/09 08:41:36;;;;;;;5.63;2.88;;;;;;;15.75;69.42;100022.03;31093227;28;97558;-69
2023/08/09 08:56:37;;;;;;;4.45;2.50;;;;;;;15.74;68.77;100015.81;31090706;28;97003;-69
2023/08/09 09:11:37;;;;;;;3.47;2.08;;;;;;;16.03;69.03;100016.44;31095298;28;97509;-68
2023/08/09 09:26:38;;;;;;;2.72;1.52;;;;;;;16.54;68.06;100001.38;31100985;28;97056;-67
2023/08/09 09:41:45;;;;;;;4.85;2.88;;;;;;;18.34;66.52;99992.84;31091497;28;96698;-70
2023/08/09 09:56:46;;;;;;;4.07;1.90;;;;;;;18.25;64.24;99972.66;31089262;28;99825;-69
2023/08/09 10:11:50;;;;;;;6.53;1.87;;;;;;;17.36;64.86;99978.28;31094358;28;97531;-70
2023/08/09 10:26:52;;;;;;;3.97;1.87;;;;;;;16.97;66.21;99966.81;31078487;28;97696;-68
2023/08/09 10:41:56;;;;;;;4.63;2.37;;;;;;;17.02;66.72;99958.91;31080845;28;97134;-69
2023/08/09 10:57:08;;;;;;;4.60;1.83;;;;;;;16.88;67.29;99971.56;31079496;28;97204;-70
2023/08/09 11:12:10;;;;;;;;;;;;;;;16.98;67.79;99968.47;31096640;28;97214;-71
2023/08/09 11:27:11;;;;;;;5.70;3.10;;;;;;;16.99;68.55;99959.31;31098857;28;97362;-71
2023/08/09 11:42:12;;;;;;;6.28;3.30;;;;;;;16.57;69.65;99971.34;31103381;28;106077;-71
2023/08/09 11:57:13;;;;;;;4.27;2.70;;;;;;;16.62;70.56;99976.09;31106440;28;97764;-70
2023/08/09 12:12:13;;;;;;;5.05;2.38;;;;;;;17.48;70.50;99997.25;31092906;28;97239;-70
2023/08/09 12:27:15;;;;;;;5.25;2.28;;;;;;;19.66;69.25;99997.59;31091591;28;97186;-69
2023/08/09 12:42:16;;;;;;;4.90;1.90;;;;;;;22.64;65.96;100008.13;31093067;28;97049;-70
2023/08/09 12:57:16;;;;;;;5.32;2.38;;;;;;;23.68;60.35;100030.84;31092096;28;96911;-69
2023/08/09 13:12:17;;;;;;;3.38;2.20;;;;;;;25.81;56.22;100024.63;31087248;28;97170;-70
2023/08/09 13:27:17;;;;;;;1.70;1.13;;;;;;;25.34;52.46;100015.69;31085265;28;97577;-70
2023/08/09 13:42:18;;;;;;;1.95;1.10;;;;;;;24.93;50.66;100020.25;31083387;28;96860;-70
2023/08/09 13:57:21;;;;;;;1.52;0.90;;;;;;;24.72;48.40;100030.28;31099026;28;97474;-70
2023/08/09 14:12:21;;;;;;;1.67;1.00;;;;;;;23.80;47.53;100028.75;31082408;28;97493;-70
2023/08/09 14:27:21;;;;;;;1.45;1.00;;;;;;;23.17;47.94;100034.78;31124356;28;98489;-69
2023/08/09 14:42:22;;;;;;;1.85;1.10;;;;;;;22.64;47.63;100059.72;31128236;27;113260;-69
2023/08/09 14:57:22;;;;;;;2.72;1.20;;;;;;;22.04;47.70;100066.78;31140808;28;97331;-70
2023/08/09 15:12:23;;;;;;;1.65;1.15;;;;;;;21.80;48.33;100082.44;31096965;28;97246;-70
2023/08/09 15:27:23;;;;;;;2.83;1.30;;;;;;;21.57;47.58;100081.53;31116012;28;98088;-70
2023/08/09 15:42:24;;;;;;;3.20;1.42;;;;;;;21.46;47.95;100104.09;31092043;28;96879;-69
2023/08/09 15:57:24;;;;;;;2.50;1.10;;;;;;;21.12;47.58;100098.59;31092152;28;97896;-69
2023/08/09 16:12:24;;;;;;;1.57;1.10;;;;;;;20.94;48.19;100124.81;31081688;28;109702;-70
2023/08/09 16:27:25;;;;;;;3.67;1.30;;;;;;;20.90;48.49;100134.47;31070629;28;99268;-70
2023/08/09 16:42:25;;;;;;;4.73;1.40;;;;;;;20.88;48.37;100152.84;31114582;28;98127;-71
2023/08/09 16:57:26;;;;;;;2.20;1.30;;;;;;;20.24;48.74;100167.13;31042962;28;96867;-69
2023/08/09 17:12:26;;;;;;;3.93;1.50;;;;;;;19.76;49.46;100178.91;31069593;28;97639;-76
2023/08/09 17:27:26;;;;;;;2.73;1.40;;;;;;;19.28;49.38;100200.34;31041607;28;97398;-73
2023/08/09 17:42:27;;;;;;;2.38;1.40;;;;;;;18.75;50.43;100220.66;31040310;28;101138;-79
2023/08/09 17:57:27;;;;;;;4.90;1.50;;;;;;;18.16;51.37;100224.72;30972241;28;97503;-78
2023/08/09 18:12:27;;;;;;;3.72;1.70;;;;;;;17.47;52.58;100246.03;31039311;28;97481;-75
2023/08/09 18:27:28;;;;;;;1.80;1.33;;;;;;;16.76;53.73;100264.66;31082055;28;97081;-74
2023/08/09 18:42:28;;;;;;;4.85;1.73;;;;;;;16.17;55.05;100283.28;31087143;28;97162;-80
2023/08/09 18:57:28;;;;;;;4.75;2.55;;;;;;;15.60;56.86;100304.19;31081906;28;98022;-80
2023/08/09 19:12:28;;;;;;;5.20;2.20;;;;;;;15.10;58.63;100325.78;31024143;28;114118;-77
2023/08/09 19:27:29;;;;;;;2.65;1.88;;;;;;;14.71;60.68;100351.31;31064288;28;97480;-76
2023/08/09 19:42:32;;;;;;;4.10;2.55;;;;;;;14.27;61.60;100360.34;31079667;28;99092;-75
2023/08/09 19:57:33;;;;;;;4.83;3.40;;;;;;;13.86;62.79;100384.00;31091023;28;97946;-75
2023/08/09 20:12:33;;;;;;;9.30;3.53;;;;;;;13.56;63.80;100393.94;31084524;28;98590;-76
2023/08/09 20:27:33;;;;;;;11.25;6.60;;;;;;;13.30;65.45;100411.22;31084987;28;97442;-75
2023/08/09 20:42:34;;;;;;;7.05;4.15;;;;;;;13.11;66.27;100414.41;31083431;28;96817;-78
2023/08/09 20:57:34;;;;;;;6.90;3.60;;;;;;;12.93;67.11;100430.78;31084789;28;108033;-75
2023/08/09 21:12:38;;;;;;;5.82;4.00;;;;;;;12.71;68.12;100433.28;31080035;28;97373;-75
2023/08/09 21:27:38;;;;;;;9.37;3.87;;;;;;;12.60;69.21;100453.25;31081324;28;97354;-75
2023/08/09 21:42:39;;;;;;;6.47;3.70;;;;;;;12.47;70.06;100464.50;31080118;28;97115;-73
2023/08/09 21:57:39;;;;;;;9.05;4.22;;;;;;;12.46;70.49;100462.84;31079252;28;97190;-74
2023/08/09 22:12:40;;;;;;;10.00;4.05;;;;;;;12.37;70.63;100463.91;31077427;28;97579;-74
2023/08/09 22:27:41;;;;;;;6.57;4.33;;;;;;;12.11;71.45;100478.38;31020738;28;98370;-73
2023/08/09 22:42:41;;;;;;;10.25;6.03;;;;;;;11.88;72.30;100480.94;31082772;28;103762;-73
2023/08/09 22:57:42;;;;;;;5.45;3.60;;;;;;;11.89;73.08;100487.09;31084129;28;97227;-73
2023/08/09 23:12:43;;;;;;;7.13;3.33;;;;;;;11.91;72.39;100495.78;31103876;28;97245;-73
2023/08/09 23:27:43;;;;;;;5.93;2.83;;;;;;;11.90;72.52;100496.78;31101218;28;97476;-73
2023/08/09 23:42:43;;;;;;;5.75;2.83;;;;;;;11.75;72.70;100497.47;31099358;28;103594;-72
2023/08/09 23:57:44;;;;;;;7.15;3.05;;;;;;;11.64;72.72;100500.50;31098023;28;107515;-73
